sensor_id;sensor_type;location;lat;lon;timestamp;temperature;humidity
30467;DHT22;17258;52.560;13.046;2023-03-14T00:07:58;17.30;62.70
30467;DHT22;17258;52.560;13.046;2023-03-14T00:17:59;17.20;62.70
30467;DHT22;17258;52.560;13.046;2023-03-14T00:27:59;17.10;62.70
30467;DHT22;17258;52.560;13.046;2023-03-14T00:38:00;17.00;62.70
30467;DHT22;17258;52.560;13.046;2023-03-14T00:48:01;16.90;62.70
30467;DHT22;17258;52.560;13.046;2023-03-14T00:58:01;16.90;62.70
30467;DHT22;17258;52.560;13.046;2023-03-14T01:08:02;16.80;62.60
30467;DHT22;17258;52.560;13.046;2023-03-14T01:18:03;16.70;62.60
30467;DHT22;17258;52.560;13.046;2023-03-14T01:28:04;16.60;62.60
30467;DHT22;17258;52.560;13.046;2023-03-14T01:38:05;16.50;62.70
30467;DHT22;17258;52.560;13.046;2023-03-14T01:48:06;16.40;62.80
30467;DHT22;17258;52.560;13.046;2023-03-14T01:58:07;16.40;62.90
30467;DHT22;17258;52.560;13.046;2023-03-14T02:08:14;16.30;62.90
30467;DHT22;17258;52.560;13.046;2023-03-14T02:18:16;16.30;63.00
30467;DHT22;17258;52.560;13.046;2023-03-14T02:28:17;16.30;63.00
30467;DHT22;17258;52.560;13.046;2023-03-14T02:38:53;16.30;63.10
30467;DHT22;17258;52.560;13.046;2023-03-14T02:49:07;16.20;63.20
30467;DHT22;17258;52.560;13.046;2023-03-14T02:59:08;16.20;63.20
30467;DHT22;17258;52.560;13.046;2023-03-14T03:09:09;16.20;63.10
30467;DHT22;17258;52.560;13.046;2023-03-14T03:19:10;16.10;63.00
30467;DHT22;17258;52.560;13.046;2023-03-14T03:29:10;16.10;63.00
30467;DHT22;17258;52.560;13.046;2023-03-14T03:39:11;16.10;63.00
30467;DHT22;17258;52.560;13.046;2023-03-14T03:49:12;16.10;63.00
30467;DHT22;17258;52.560;13.046;2023-03-14T03:59:14;16.00;63.00
30467;DHT22;17258;52.560;13.046;2023-03-14T04:09:15;16.00;62.90
30467;DHT22;17258;52.560;13.046;2023-03-14T04:19:16;15.90;62.90
30467;DHT22;17258;52.560;13.046;2023-03-14T04:29:17;15.90;62.90
30467;DHT22;17258;52.560;13.046;2023-03-14T04:39:18;15.80;62.90
30467;DHT22;17258;52.560;13.046;2023-03-14T04:49:18;15.80;62.90
30467;DHT22;17258;52.560;13.046;2023-03-14T04:59:19;15.80;62.80
30467;DHT22;17258;52.560;13.046;2023-03-14T05:09:20;15.80;62.90
30467;DHT22;17258;52.560;13.046;2023-03-14T05:19:20;15.80;62.90
30467;DHT22;17258;52.560;13.046;2023-03-14T05:29:21;15.70;62.80
30467;DHT22;17258;52.560;13.046;2023-03-14T05:39:23;15.70;62.80
30467;DHT22;17258;52.560;13.046;2023-03-14T05:49:23;15.70;62.80
30467;DHT22;17258;52.560;13.046;2023-03-14T05:59:24;15.70;62.80
30467;DHT22;17258;52.560;13.046;2023-03-14T06:09:25;15.70;62.80
30467;DHT22;17258;52.560;13.046;2023-03-14T06:19:26;15.70;62.70
30467;DHT22;17258;52.560;13.046;2023-03-14T06:29:26;15.70;62.70
30467;DHT22;17258;52.560;13.046;2023-03-14T06:39:27;15.70;62.80
30467;DHT22;17258;52.560;13.046;2023-03-14T06:49:27;15.70;62.80
30467;DHT22;17258;52.560;13.046;2023-03-14T06:59:29;15.80;63.00
30467;DHT22;17258;52.560;13.046;2023-03-14T07:09:31;15.90;63.10
30467;DHT22;17258;52.560;13.046;2023-03-14T07:19:32;16.00;63.80
30467;DHT22;17258;52.560;13.046;2023-03-14T07:29:33;16.20;63.00
30467;DHT22;17258;52.560;13.046;2023-03-14T07:39:33;16.30;62.90
30467;DHT22;17258;52.560;13.046;2023-03-14T07:49:34;16.40;63.10
30467;DHT22;17258;52.560;13.046;2023-03-14T07:59:35;16.60;63.30
30467;DHT22;17258;52.560;13.046;2023-03-14T08:09:35;16.80;63.20
30467;DHT22;17258;52.560;13.046;2023-03-14T08:19:36;17.00;62.70
30467;DHT22;17258;52.560;13.046;2023-03-14T08:29:37;17.20;62.40
30467;DHT22;17258;52.560;13.046;2023-03-14T08:39:37;17.20;62.00
30467;DHT22;17258;52.560;13.046;2023-03-14T08:49:38;17.30;62.10
30467;DHT22;17258;52.560;13.046;2023-03-14T08:59:39;17.30;62.00
30467;DHT22;17258;52.560;13.046;2023-03-14T09:09:40;17.40;62.30
30467;DHT22;17258;52.560;13.046;2023-03-14T09:19:41;17.50;62.20
30467;DHT22;17258;52.560;13.046;2023-03-14T09:29:41;17.70;62.50
30467;DHT22;17258;52.560;13.046;2023-03-14T09:39:42;18.00;61.50
30467;DHT22;17258;52.560;13.046;2023-03-14T09:49:43;18.20;61.60
30467;DHT22;17258;52.560;13.046;2023-03-14T09:59:45;18.40;61.40
30467;DHT22;17258;52.560;13.046;2023-03-14T10:09:49;18.60;61.10
30467;DHT22;17258;52.560;13.046;2023-03-14T10:19:59;18.70;60.30
30467;DHT22;17258;52.560;13.046;2023-03-14T10:30:03;18.80;59.20
30467;DHT22;17258;52.560;13.046;2023-03-14T10:40:13;18.80;59.50
30467;DHT22;17258;52.560;13.046;2023-03-14T10:50:28;18.80;59.10
30467;DHT22;17258;52.560;13.046;2023-03-14T11:00:30;18.90;59.00
30467;DHT22;17258;52.560;13.046;2023-03-14T11:10:35;18.80;59.40
30467;DHT22;17258;52.560;13.046;2023-03-14T11:20:59;18.80;59.40
30467;DHT22;17258;52.560;13.046;2023-03-14T11:31:26;18.80;59.00
30467;DHT22;17258;52.560;13.046;2023-03-14T11:41:29;18.70;57.60
30467;DHT22;17258;52.560;13.046;2023-03-14T11:51:35;18.70;59.10
30467;DHT22;17258;52.560;13.046;2023-03-14T12:01:56;18.60;58.80
30467;DHT22;17258;52.560;13.046;2023-03-14T12:12:04;18.50;58.60
30467;DHT22;17258;52.560;13.046;2023-03-14T12:32:23;18.40;60.00
30467;DHT22;17258;52.560;13.046;2023-03-14T13:03:53;18.80;59.50
30467;DHT22;17258;52.560;13.046;2023-03-14T13:13:59;18.90;60.00
30467;DHT22;17258;52.560;13.046;2023-03-14T13:24:01;19.10;60.40
30467;DHT22;17258;52.560;13.046;2023-03-14T13:34:09;19.40;60.70
30467;DHT22;17258;52.560;13.046;2023-03-14T13:44:37;19.70;59.70
30467;DHT22;17258;52.560;13.046;2023-03-14T13:54:39;19.80;58.70
30467;DHT22;17258;52.560;13.046;2023-03-14T14:04:40;19.90;59.10
30467;DHT22;17258;52.560;13.046;2023-03-14T14:14:47;20.00;58.70
30467;DHT22;17258;52.560;13.046;2023-03-14T14:24:52;19.90;57.30
30467;DHT22;17258;52.560;13.046;2023-03-14T14:34:57;19.60;56.40
30467;DHT22;17258;52.560;13.046;2023-03-14T14:45:02;19.00;57.00
30467;DHT22;17258;52.560;13.046;2023-03-14T14:55:18;18.60;58.20
30467;DHT22;17258;52.560;13.046;2023-03-14T15:05:25;18.10;55.50
30467;DHT22;17258;52.560;13.046;2023-03-14T15:15:27;17.00;53.50
30467;DHT22;17258;52.560;13.046;2023-03-14T15:25:28;15.30;53.90
30467;DHT22;17258;52.560;13.046;2023-03-14T15:35:28;13.80;55.00
30467;DHT22;17258;52.560;13.046;2023-03-14T15:45:30;12.60;56.20
30467;DHT22;17258;52.560;13.046;2023-03-14T15:55:30;11.70;57.00
30467;DHT22;17258;52.560;13.046;2023-03-14T16:05:31;11.00;57.10
30467;DHT22;17258;52.560;13.046;2023-03-14T16:15:32;10.30;57.00
30467;DHT22;17258;52.560;13.046;2023-03-14T16:25:32;9.60;57.20
30467;DHT22;17258;52.560;13.046;2023-03-14T16:35:33;9.00;57.60
30467;DHT22;17258;52.560;13.046;2023-03-14T16:45:35;8.40;58.10
30467;DHT22;17258;52.560;13.046;2023-03-14T16:55:42;8.10;59.00
30467;DHT22;17258;52.560;13.046;2023-03-14T17:05:47;7.90;59.50
30467;DHT22;17258;52.560;13.046;2023-03-14T17:15:52;7.80;59.70
30467;DHT22;17258;52.560;13.046;2023-03-14T17:25:56;7.70;60.10
30467;DHT22;17258;52.560;13.046;2023-03-14T17:35:57;7.70;60.50
30467;DHT22;17258;52.560;13.046;2023-03-14T17:45:59;7.80;60.90
30467;DHT22;17258;52.560;13.046;2023-03-14T17:56:01;7.90;61.20
30467;DHT22;17258;52.560;13.046;2023-03-14T18:06:09;8.00;61.40
30467;DHT22;17258;52.560;13.046;2023-03-14T18:16:11;8.10;61.90
30467;DHT22;17258;52.560;13.046;2023-03-14T18:26:16;8.20;61.70
30467;DHT22;17258;52.560;13.046;2023-03-14T18:36:18;8.40;61.80
30467;DHT22;17258;52.560;13.046;2023-03-14T18:46:20;8.50;62.40
30467;DHT22;17258;52.560;13.046;2023-03-14T18:56:21;8.50;62.10
30467;DHT22;17258;52.560;13.046;2023-03-14T19:06:22;8.50;62.20
30467;DHT22;17258;52.560;13.046;2023-03-14T19:16:24;8.60;62.10
30467;DHT22;17258;52.560;13.046;2023-03-14T19:26:25;8.60;61.90
30467;DHT22;17258;52.560;13.046;2023-03-14T19:36:31;8.60;61.90
30467;DHT22;17258;52.560;13.046;2023-03-14T19:46:33;8.60;61.70
30467;DHT22;17258;52.560;13.046;2023-03-14T19:56:35;8.50;61.40
30467;DHT22;17258;52.560;13.046;2023-03-14T20:06:37;8.50;61.20
30467;DHT22;17258;52.560;13.046;2023-03-14T20:16:38;8.40;61.10
30467;DHT22;17258;52.560;13.046;2023-03-14T20:26:38;8.30;60.90
30467;DHT22;17258;52.560;13.046;2023-03-14T20:36:39;8.20;60.80
30467;DHT22;17258;52.560;13.046;2023-03-14T20:46:40;8.10;60.70
30467;DHT22;17258;52.560;13.046;2023-03-14T20:56:40;8.00;60.60
30467;DHT22;17258;52.560;13.046;2023-03-14T21:06:45;8.00;60.50
30467;DHT22;17258;52.560;13.046;2023-03-14T21:16:46;8.00;60.60
30467;DHT22;17258;52.560;13.046;2023-03-14T21:26:46;8.00;60.40
30467;DHT22;17258;52.560;13.046;2023-03-14T21:36:47;7.90;60.10
30467;DHT22;17258;52.560;13.046;2023-03-14T21:46:48;7.80;60.00
30467;DHT22;17258;52.560;13.046;2023-03-14T21:56:49;7.70;60.00
30467;DHT22;17258;52.560;13.046;2023-03-14T22:06:50;7.60;60.10
30467;DHT22;17258;52.560;13.046;2023-03-14T22:16:52;7.50;60.10
30467;DHT22;17258;52.560;13.046;2023-03-14T22:26:54;7.50;60.20
30467;DHT22;17258;52.560;13.046;2023-03-14T22:36:54;7.40;60.10
30467;DHT22;17258;52.560;13.046;2023-03-14T22:46:55;7.40;60.10
30467;DHT22;17258;52.560;13.046;2023-03-14T22:56:55;7.40;60.10
30467;DHT22;17258;52.560;13.046;2023-03-14T23:06:56;7.30;60.10
30467;DHT22;17258;52.560;13.046;2023-03-14T23:16:57;7.30;60.00
30467;DHT22;17258;52.560;13.046;2023-03-14T23:26:57;7.20;60.00
30467;DHT22;17258;52.560;13.046;2023-03-14T23:36:58;7.20;60.00
30467;DHT22;17258;52.560;13.046;2023-03-14T23:46:59;7.20;60.10
30467;DHT22;17258;52.560;13.046;2023-03-14T23:56:59;7.20;60.10
